Time;durP1;ratioP1;P1;durP2;ratioP2;P2;SDS_P1;SDS_P2;PMS_P1;PMS_P2;Temp;Humidity;BMP_temperature;BMP_pressure;BME280_temperature;BME280_humidity;BME280_pressure;Samples;Min_cycle;Max_cycle;Signal;HPM_P1;HPM_P2
2023/10/21 00:01:23;;;;;;;;;;;9.10;99.90;;;;;;5044322;28;20375;-87
2023/10/21 00:03:48;;;;;;;;;;;9.60;99.90;;;;;;5044479;28;19938;-90
2023/10/21 00:06:14;;;;;;;;;;;6.40;99.90;;;;;;5077818;28;19975;-85
2023/10/21 00:08:39;;;;;;;;;;;12.30;99.90;;;;;;5051817;28;19973;-87
2023/10/21 00:11:06;;;;;;;;;;;10.90;99.90;;;;;;5051112;28;19919;-85
2023/10/21 00:13:32;;;;;;;;;;;8.30;99.90;;;;;;5040667;28;19921;-87
2023/10/21 00:15:58;;;;;;;;;;;11.90;99.90;;;;;;5050358;28;20382;-91
2023/10/21 00:18:26;;;;;;;;;;;7.10;99.90;;;;;;5065816;28;19963;-86
2023/10/21 00:20:53;;;;;;;;;;;6.80;99.90;;;;;;5068836;28;19924;-89
2023/10/21 00:23:20;;;;;;;;;;;6.40;99.90;;;;;;5045025;28;19920;-85
2023/10/21 00:25:45;;;;;;;;;;;11.70;99.90;;;;;;5050611;28;19921;-88
2023/10/21 00:28:11;;;;;;;;;;;8.20;99.90;;;;;;5048308;28;19947;-85
2023/10/21 00:30:36;;;;;;;;;;;6.60;99.90;;;;;;5062266;28;20375;-90
2023/10/21 00:33:03;;;;;;;;;;;10.80;99.90;;;;;;5052794;28;19926;-87
2023/10/21 00:35:31;;;;;;;;;;;12.20;99.90;;;;;;5040342;28;19945;-86
2023/10/21 00:37:57;;;;;;;;;;;12.40;99.90;;;;;;5077190;28;20329;-89
2023/10/21 00:40:23;;;;;;;;;;;6.50;99.90;;;;;;5059238;28;19924;-88
2023/10/21 00:42:48;;;;;;;;;;;6.50;99.90;;;;;;5082530;28;19924;-85
2023/10/21 00:45:14;;;;;;;;;;;6.60;99.90;;;;;;5076197;28;19930;-87
2023/10/21 00:47:40;;;;;;;;;;;7.80;99.90;;;;;;5061301;28;19936;-90
2023/10/21 00:50:06;;;;;;;;;;;7.60;99.90;;;;;;5052387;28;19924;-89
2023/10/21 00:52:37;;;;;;;;;;;6.60;99.90;;;;;;5054604;28;19927;-90
2023/10/21 00:55:03;;;;;;;;;;;10.90;99.90;;;;;;5059893;28;19975;-93
2023/10/21 00:57:29;;;;;;;;;;;10.60;99.90;;;;;;5048287;28;20315;-92
2023/10/21 00:59:54;;;;;;;;;;;8.40;99.90;;;;;;5052035;28;19947;-89
2023/10/21 01:02:20;;;;;;;;;;;7.70;99.90;;;;;;5060127;28;20151;-89
2023/10/21 01:04:45;;;;;;;;;;;6.90;99.90;;;;;;5042731;28;19931;-88
2023/10/21 01:07:15;;;;;;;;;;;8.20;99.90;;;;;;5059652;28;19947;-88
2023/10/21 01:09:42;;;;;;;;;;;;;;;;;;5059815;28;19920;-95
2023/10/21 01:12:08;;;;;;;;;;;12.60;99.90;;;;;;5077492;28;19927;-89
2023/10/21 01:14:34;;;;;;;;;;;7.00;99.90;;;;;;5060399;28;20285;-87
2023/10/21 01:16:59;;;;;;;;;;;14.20;99.90;;;;;;5028051;28;20013;-91
2023/10/21 01:19:25;;;;;;;;;;;12.30;99.90;;;;;;5067035;28;19974;-88
2023/10/21 01:21:51;;;;;;;;;;;11.00;99.90;;;;;;5072911;28;20680;-88
2023/10/21 01:24:17;;;;;;;;;;;10.30;99.90;;;;;;5099770;28;19938;-93
2023/10/21 01:26:42;;;;;;;;;;;9.70;99.90;;;;;;5049158;28;19970;-90
2023/10/21 01:29:09;;;;;;;;;;;7.00;99.90;;;;;;5062805;28;19999;-90
2023/10/21 01:31:35;;;;;;;;;;;11.20;99.90;;;;;;5093469;28;19970;-91
2023/10/21 01:34:01;;;;;;;;;;;12.30;99.90;;;;;;5059491;28;19977;-93
2023/10/21 01:36:27;;;;;;;;;;;10.60;99.90;;;;;;5060851;28;19924;-91
2023/10/21 01:38:52;;;;;;;;;;;7.40;99.90;;;;;;5061032;28;19920;-89
2023/10/21 01:41:18;;;;;;;;;;;12.40;99.90;;;;;;5042270;28;19924;-90
2023/10/21 01:43:44;;;;;;;;;;;12.30;99.90;;;;;;5078473;28;19928;-93
2023/10/21 01:46:10;;;;;;;;;;;11.80;99.90;;;;;;5041764;28;19965;-90
2023/10/21 01:48:36;;;;;;;;;;;10.20;99.90;;;;;;5024725;28;20314;-90
2023/10/21 01:51:04;;;;;;;;;;;11.90;99.90;;;;;;5091950;28;19920;-92
2023/10/21 01:53:31;;;;;;;;;;;7.30;99.90;;;;;;5059299;28;19928;-90
2023/10/21 01:56:00;;;;;;;;;;;11.30;99.90;;;;;;5060184;28;19966;-91
2023/10/21 01:58:26;;;;;;;;;;;9.90;99.90;;;;;;5056654;28;19985;-90
2023/10/21 02:00:52;;;;;;;;;;;11.90;99.90;;;;;;5058498;28;19985;-92
2023/10/21 02:03:18;;;;;;;;;;;6.60;99.90;;;;;;5050207;28;19927;-89
2023/10/21 02:05:43;;;;;;;;;;;12.00;99.90;;;;;;5061916;28;19973;-88
2023/10/21 02:08:09;;;;;;;;;;;11.50;99.90;;;;;;5066372;28;20313;-94
2023/10/21 02:10:38;;;;;;;;;;;8.00;99.90;;;;;;5060134;28;19927;-88
2023/10/21 02:13:03;;;;;;;;;;;11.90;99.90;;;;;;5059113;28;19924;-89
2023/10/21 02:15:29;;;;;;;;;;;8.90;99.90;;;;;;5045673;28;20427;-90
2023/10/21 02:17:55;;;;;;;;;;;8.10;99.90;;;;;;5045136;28;19925;-94
2023/10/21 02:20:20;;;;;;;;;;;9.50;99.90;;;;;;5060146;28;19962;-90
2023/10/21 02:22:46;;;;;;;;;;;10.30;99.90;;;;;;5073508;28;19919;-89
2023/10/21 02:25:12;;;;;;;;;;;11.90;99.90;;;;;;5046869;28;19924;-94
2023/10/21 02:27:40;;;;;;;;;;;10.30;99.90;;;;;;5059691;28;20455;-96
2023/10/21 02:30:14;;;;;;;;;;;8.60;99.90;;;;;;5061002;28;19927;-90
2023/10/21 02:32:47;;;;;;;;;;;6.50;99.90;;;;;;5058031;28;19927;-87
2023/10/21 02:35:13;;;;;;;;;;;7.20;99.90;;;;;;5067600;28;19923;-87
2023/10/21 02:37:38;;;;;;;;;;;10.70;99.90;;;;;;5064054;28;19927;-93
2023/10/21 02:40:04;;;;;;;;;;;7.50;99.90;;;;;;5042821;28;20010;-95
2023/10/21 02:42:30;;;;;;;;;;;10.70;99.90;;;;;;5060355;28;19920;-90
2023/10/21 02:44:57;;;;;;;;;;;9.60;99.90;;;;;;5041996;28;19920;-89
2023/10/21 02:47:23;;;;;;;;;;;6.30;99.90;;;;;;5043095;28;19927;-90
2023/10/21 02:49:48;;;;;;;;;;;11.40;99.90;;;;;;5058627;28;19924;-90
2023/10/21 02:52:14;;;;;;;;;;;7.80;99.90;;;;;;5060310;28;19924;-93
2023/10/21 02:54:39;;;;;;;;;;;10.20;99.90;;;;;;5064208;28;20308;-91
2023/10/21 02:57:05;;;;;;;;;;;11.50;99.90;;;;;;5058306;28;20371;-89
2023/10/21 02:59:30;;;;;;;;;;;6.40;99.90;;;;;;5076509;28;19940;-90
2023/10/21 03:01:56;;;;;;;;;;;6.30;99.90;;;;;;5045433;28;20390;-93
2023/10/21 03:04:22;;;;;;;;;;;9.10;99.90;;;;;;5068499;28;19919;-89
2023/10/21 03:06:47;;;;;;;;;;;6.60;99.90;;;;;;5041388;28;19921;-88
2023/10/21 03:09:15;;;;;;;;;;;10.50;99.90;;;;;;5051452;28;19943;-94
2023/10/21 03:11:41;;;;;;;;;;;11.00;99.90;;;;;;5070175;28;20429;-90
2023/10/21 03:14:07;;;;;;;;;;;11.40;99.90;;;;;;5074205;28;20121;-93
2023/10/21 03:16:32;;;;;;;;;;;6.40;99.90;;;;;;5041032;28;20011;-91
2023/10/21 03:18:58;;;;;;;;;;;8.70;99.90;;;;;;5058553;28;20367;-90
2023/10/21 03:21:23;;;;;;;;;;;9.20;99.90;;;;;;5043997;28;19932;-90
2023/10/21 03:23:49;;;;;;;;;;;8.40;99.90;;;;;;5041197;28;19959;-91
2023/10/21 03:26:15;;;;;;;;;;;8.80;99.90;;;;;;5046998;28;19956;-89
2023/10/21 03:28:40;;;;;;;;;;;11.70;99.90;;;;;;5041803;28;19928;-91
2023/10/21 03:31:06;;;;;;;;;;;9.50;99.90;;;;;;5060784;28;19920;-93
2023/10/21 03:33:32;;;;;;;;;;;6.90;99.90;;;;;;5062168;28;19926;-86
2023/10/21 03:35:59;;;;;;;;;;;11.80;99.90;;;;;;5062558;28;20256;-91
2023/10/21 03:38:25;;;;;;;;;;;10.80;99.90;;;;;;5061485;28;19924;-91
2023/10/21 03:41:17;;;;;;;;;;;6.90;99.90;;;;;;5060422;28;20128;-87
2023/10/21 03:43:42;;;;;;;;;;;11.90;99.90;;;;;;5064741;28;19919;-87
2023/10/21 03:46:09;;;;;;;;;;;8.40;99.90;;;;;;5045876;28;19946;-92
2023/10/21 03:48:35;;;;;;;;;;;6.70;99.90;;;;;;5044371;28;19977;-89
2023/10/21 03:51:07;;;;;;;;;;;11.40;99.90;;;;;;5075642;28;20321;-91
2023/10/21 03:53:33;;;;;;;;;;;6.80;99.90;;;;;;5072930;28;19965;-94
2023/10/21 03:56:00;;;;;;;;;;;7.30;99.90;;;;;;5058563;28;20489;-92
2023/10/21 03:58:26;;;;;;;;;;;6.90;99.90;;;;;;5060902;28;19924;-89
2023/10/21 04:00:52;;;;;;;;;;;10.50;99.90;;;;;;5046411;28;20019;-87
2023/10/21 04:03:17;;;;;;;;;;;7.10;99.90;;;;;;5080904;28;20012;-89
2023/10/21 04:05:43;;;;;;;;;;;10.70;99.90;;;;;;5056577;28;19920;-91
2023/10/21 04:08:09;;;;;;;;;;;11.60;99.90;;;;;;5075868;28;19966;-87
2023/10/21 04:10:35;;;;;;;;;;;7.70;99.90;;;;;;5043213;28;19924;-87
2023/10/21 04:13:01;;;;;;;;;;;8.90;99.90;;;;;;5048956;28;19943;-89
2023/10/21 04:15:27;;;;;;;;;;;9.10;99.90;;;;;;5044145;28;19921;-89
2023/10/21 04:17:52;;;;;;;;;;;11.90;99.90;;;;;;5065472;28;19927;-87
2023/10/21 04:20:18;;;;;;;;;;;11.90;99.90;;;;;;5043931;28;19990;-91
2023/10/21 04:22:44;;;;;;;;;;;7.40;99.90;;;;;;5076599;28;19975;-90
2023/10/21 04:25:12;;;;;;;;;;;11.30;99.90;;;;;;5044919;28;20637;-93
2023/10/21 04:27:38;;;;;;;;;;;11.50;99.90;;;;;;5044754;28;19920;-86
2023/10/21 04:30:04;;;;;;;;;;;9.90;99.90;;;;;;5044347;28;19954;-88
2023/10/21 04:32:30;;;;;;;;;;;11.80;99.90;;;;;;5064015;28;19935;-88
2023/10/21 04:34:56;;;;;;;;;;;11.70;99.90;;;;;;5059603;28;19995;-87
2023/10/21 04:37:21;;;;;;;;;;;7.00;99.90;;;;;;5078159;28;19920;-86
2023/10/21 04:39:47;;;;;;;;;;;10.00;99.90;;;;;;5047077;28;19973;-90
2023/10/21 04:42:13;;;;;;;;;;;9.20;99.90;;;;;;5061972;28;19920;-94
2023/10/21 04:44:38;;;;;;;;;;;7.20;99.90;;;;;;5061568;28;19920;-89
2023/10/21 04:47:04;;;;;;;;;;;11.50;99.90;;;;;;5051401;28;19924;-87
2023/10/21 04:49:30;;;;;;;;;;;11.30;99.90;;;;;;5047452;28;20454;-86
2023/10/21 04:51:56;;;;;;;;;;;7.40;99.90;;;;;;5066716;28;19974;-87
2023/10/21 04:54:21;;;;;;;;;;;7.20;99.90;;;;;;5080207;28;19920;-88
2023/10/21 04:56:47;;;;;;;;;;;11.00;99.90;;;;;;5058452;28;20007;-91
2023/10/21 04:59:13;;;;;;;;;;;7.40;99.90;;;;;;5052386;28;19924;-89
2023/10/21 05:01:38;;;;;;;;;;;7.20;99.90;;;;;;5058496;28;19927;-87
2023/10/21 05:04:04;;;;;;;;;;;10.40;99.90;;;;;;5043770;28;19928;-87
2023/10/21 05:06:29;;;;;;;;;;;7.10;99.90;;;;;;5059112;28;19920;-86
2023/10/21 05:08:55;;;;;;;;;;;8.60;99.90;;;;;;5060553;28;20355;-90
2023/10/21 05:11:21;;;;;;;;;;;11.00;99.90;;;;;;5033055;28;19921;-89
2023/10/21 05:13:47;;;;;;;;;;;9.00;99.90;;;;;;5077358;28;19920;-89
2023/10/21 05:16:12;;;;;;;;;;;7.30;99.90;;;;;;5041874;28;20324;-87
2023/10/21 05:18:38;;;;;;;;;;;8.50;99.90;;;;;;5061032;28;19920;-89
2023/10/21 05:21:07;;;;;;;;;;;10.80;99.90;;;;;;5059604;28;19928;-86
2023/10/21 05:23:32;;;;;;;;;;;7.20;99.90;;;;;;5051853;28;20382;-91
2023/10/21 05:25:58;;;;;;;;;;;11.10;99.90;;;;;;5075754;28;19920;-90
2023/10/21 05:28:24;;;;;;;;;;;10.20;99.90;;;;;;5074718;28;20510;-86
2023/10/21 05:30:50;;;;;;;;;;;10.80;99.90;;;;;;5049838;28;20355;-85
2023/10/21 05:33:16;;;;;;;;;;;8.60;99.90;;;;;;5042850;28;19920;-89
2023/10/21 05:35:41;;;;;;;;;;;10.50;99.90;;;;;;5041937;28;19920;-88
2023/10/21 05:38:07;;;;;;;;;;;8.20;99.90;;;;;;5057757;28;19920;-86
2023/10/21 05:40:32;;;;;;;;;;;11.00;99.90;;;;;;5055702;28;19924;-91
2023/10/21 05:42:58;;;;;;;;;;;11.00;99.90;;;;;;5058295;28;19920;-89
2023/10/21 05:45:23;;;;;;;;;;;8.30;99.90;;;;;;5036467;28;20426;-91
2023/10/21 05:47:49;;;;;;;;;;;10.80;99.90;;;;;;5020697;28;19966;-88
2023/10/21 05:50:19;;;;;;;;;;;10.80;99.90;;;;;;5051490;28;20063;-92
2023/10/21 05:52:45;;;;;;;;;;;10.90;99.90;;;;;;5019286;28;19928;-88
2023/10/21 05:55:11;;;;;;;;;;;7.40;99.90;;;;;;5020975;28;19920;-91
2023/10/21 05:57:36;;;;;;;;;;;8.60;99.90;;;;;;5017487;28;19921;-92
2023/10/21 06:00:05;;;;;;;;;;;10.60;99.90;;;;;;5048812;28;20395;-92
2023/10/21 06:02:30;;;;;;;;;;;10.90;99.90;;;;;;5041817;28;19928;-90
2023/10/21 06:04:56;;;;;;;;;;;11.00;99.90;;;;;;5020715;28;19932;-89
2023/10/21 06:07:21;;;;;;;;;;;10.80;99.90;;;;;;5018358;28;20343;-90
2023/10/21 06:09:47;;;;;;;;;;;10.90;99.90;;;;;;5014310;28;19921;-90
2023/10/21 06:12:13;;;;;;;;;;;8.20;99.90;;;;;;5030478;28;20006;-85
2023/10/21 06:14:38;;;;;;;;;;;11.00;99.90;;;;;;5012531;28;19947;-86
2023/10/21 06:17:04;;;;;;;;;;;10.80;99.90;;;;;;5017068;28;19975;-85
2023/10/21 06:19:29;;;;;;;;;;;8.10;99.90;;;;;;5043079;28;19926;-86
2023/10/21 06:21:55;;;;;;;;;;;7.60;99.90;;;;;;5029215;28;19952;-92
2023/10/21 06:24:20;;;;;;;;;;;10.90;99.90;;;;;;5030497;28;19921;-89
2023/10/21 06:26:46;;;;;;;;;;;9.90;99.90;;;;;;5012948;28;19971;-84
2023/10/21 06:29:12;;;;;;;;;;;10.60;99.90;;;;;;5044553;28;19962;-92
2023/10/21 06:31:37;;;;;;;;;;;9.50;99.90;;;;;;5033316;28;19986;-88
2023/10/21 06:34:03;;;;;;;;;;;10.10;99.90;;;;;;5018602;28;19994;-89
2023/10/21 06:36:28;;;;;;;;;;;7.80;99.90;;;;;;5054447;28;20031;-94
2023/10/21 06:38:54;;;;;;;;;;;7.90;99.90;;;;;;5023649;28;19925;-86
2023/10/21 06:41:21;;;;;;;;;;;9.10;99.90;;;;;;5034423;28;19929;-93
2023/10/21 06:43:47;;;;;;;;;;;11.00;99.90;;;;;;5054453;28;19927;-86
2023/10/21 06:46:13;;;;;;;;;;;9.90;99.90;;;;;;5035081;28;20274;-87
2023/10/21 06:48:39;;;;;;;;;;;11.10;99.90;;;;;;5059119;28;19974;-92
2023/10/21 06:51:05;;;;;;;;;;;11.10;99.90;;;;;;5046504;28;20369;-90
2023/10/21 06:53:30;;;;;;;;;;;10.50;99.90;;;;;;5060106;28;19921;-92
2023/10/21 06:55:56;;;;;;;;;;;9.70;99.90;;;;;;5031253;28;19920;-93
2023/10/21 06:58:21;;;;;;;;;;;11.20;99.90;;;;;;5032634;28;19928;-88
2023/10/21 07:00:47;;;;;;;;;;;9.70;99.90;;;;;;5058499;28;20019;-90
2023/10/21 07:03:13;;;;;;;;;;;8.50;99.90;;;;;;5064897;28;20354;-91
2023/10/21 07:05:40;;;;;;;;;;;8.30;99.90;;;;;;5052116;28;19960;-89
2023/10/21 07:08:06;;;;;;;;;;;10.80;99.90;;;;;;5070876;28;19931;-89
2023/10/21 07:10:32;;;;;;;;;;;9.90;99.90;;;;;;5049729;28;19924;-90
2023/10/21 07:12:58;;;;;;;;;;;8.40;99.90;;;;;;5063421;28;19920;-95
2023/10/21 07:15:33;;;;;;;;;;;11.40;99.90;;;;;;5062120;28;19924;-92
2023/10/21 07:17:58;;;;;;;;;;;11.00;99.90;;;;;;5055644;28;20382;-91
2023/10/21 07:20:25;;;;;;;;;;;11.40;99.90;;;;;;5053622;28;19975;-89
2023/10/21 07:22:52;;;;;;;;;;;10.10;99.90;;;;;;5065129;28;19927;-92
2023/10/21 07:25:20;;;;;;;;;;;9.00;99.90;;;;;;5060078;28;19924;-90
2023/10/21 07:27:46;;;;;;;;;;;9.10;99.90;;;;;;5063102;28;19944;-93
2023/10/21 07:30:12;;;;;;;;;;;11.50;99.90;;;;;;5053749;28;21254;-91
2023/10/21 07:32:38;;;;;;;;;;;11.40;99.90;;;;;;5058906;28;19921;-90
2023/10/21 07:35:04;;;;;;;;;;;10.90;99.90;;;;;;5064535;28;20374;-91
2023/10/21 07:37:30;;;;;;;;;;;9.10;99.90;;;;;;5038872;28;19927;-91
2023/10/21 07:39:58;;;;;;;;;;;11.70;99.90;;;;;;5056345;28;19931;-90
2023/10/21 07:42:24;;;;;;;;;;;8.90;99.90;;;;;;5055819;28;19975;-92
2023/10/21 07:44:49;;;;;;;;;;;8.90;99.90;;;;;;5039668;28;19920;-92
2023/10/21 07:47:15;;;;;;;;;;;9.90;99.90;;;;;;5023230;28;20334;-88
2023/10/21 07:49:41;;;;;;;;;;;11.60;99.90;;;;;;5037853;28;19920;-92
2023/10/21 07:52:06;;;;;;;;;;;9.10;99.90;;;;;;5021855;28;19944;-95
2023/10/21 07:54:32;;;;;;;;;;;10.00;99.90;;;;;;5056214;28;19971;-86
2023/10/21 07:56:58;;;;;;;;;;;9.30;99.90;;;;;;5058666;28;20362;-96
2023/10/21 07:59:27;;;;;;;;;;;9.10;99.90;;;;;;5040204;28;19933;-96
2023/10/21 08:01:54;;;;;;;;;;;11.80;99.90;;;;;;5023740;28;19968;-93
2023/10/21 08:04:19;;;;;;;;;;;11.40;99.90;;;;;;5049642;28;19927;-93
2023/10/21 08:06:46;;;;;;;;;;;10.80;99.90;;;;;;5037672;28;20011;-92
2023/10/21 08:09:15;;;;;;;;;;;11.90;99.90;;;;;;5026381;28;20287;-93
2023/10/21 08:11:42;;;;;;;;;;;11.70;99.90;;;;;;5034109;28;20413;-92
2023/10/21 08:14:09;;;;;;;;;;;11.90;99.90;;;;;;5025507;28;19959;-94
2023/10/21 08:16:35;;;;;;;;;;;9.60;99.90;;;;;;5039702;28;19921;-95
2023/10/21 08:19:00;;;;;;;;;;;9.50;99.90;;;;;;5040402;28;19935;-95
2023/10/21 08:21:27;;;;;;;;;;;9.40;99.90;;;;;;5023280;28;19994;-94
2023/10/21 08:23:53;;;;;;;;;;;9.50;99.90;;;;;;5033343;28;20521;-89
2023/10/21 08:26:19;;;;;;;;;;;9.40;99.90;;;;;;5041737;28;20041;-92
2023/10/21 08:28:44;;;;;;;;;;;12.30;99.90;;;;;;5018298;28;19925;-91
2023/10/21 08:31:10;;;;;;;;;;;10.10;99.90;;;;;;5023858;28;19927;-90
2023/10/21 08:33:35;;;;;;;;;;;9.70;99.90;;;;;;5035831;28;19921;-88
2023/10/21 08:36:01;;;;;;;;;;;9.80;99.90;;;;;;5027174;28;19921;-94
2023/10/21 08:38:27;;;;;;;;;;;11.30;99.90;;;;;;5015125;28;19920;-93
2023/10/21 08:40:53;;;;;;;;;;;12.60;99.90;;;;;;5046193;28;19948;-93
2023/10/21 08:43:19;;;;;;;;;;;11.30;99.90;;;;;;5035966;28;19927;-90
2023/10/21 08:45:45;;;;;;;;;;;9.90;99.90;;;;;;5021939;28;19928;-90
2023/10/21 08:48:11;;;;;;;;;;;11.20;99.90;;;;;;5013605;28;19928;-87
2023/10/21 08:50:38;;;;;;;;;;;12.50;99.90;;;;;;5038285;28;20474;-92
2023/10/21 08:53:11;;;;;;;;;;;12.80;99.90;;;;;;5040957;28;22149;-93
2023/10/21 08:55:38;;;;;;;;;;;12.70;99.90;;;;;;5033230;28;19920;-94
2023/10/21 08:58:06;;;;;;;;;;;10.40;99.90;;;;;;5028416;28;19931;-90
2023/10/21 09:00:32;;;;;;;;;;;12.90;99.90;;;;;;5016241;28;19924;-89
2023/10/21 09:02:58;;;;;;;;;;;13.20;99.90;;;;;;5035113;28;19968;-90
2023/10/21 09:05:24;;;;;;;;;;;13.40;99.90;;;;;;5019803;28;19970;-92
2023/10/21 09:07:50;;;;;;;;;;;13.50;99.90;;;;;;5033556;28;19920;-94
2023/10/21 09:10:17;;;;;;;;;;;;;;;;;;5015126;28;19924;-93
2023/10/21 09:12:42;;;;;;;;;;;13.40;99.90;;;;;;5060201;28;19980;-91
2023/10/21 09:15:09;;;;;;;;;;;13.90;99.90;;;;;;5036281;28;20287;-91
2023/10/21 09:17:35;;;;;;;;;;;13.80;99.90;;;;;;5030896;28;19945;-96
2023/10/21 09:20:11;;;;;;;;;;;13.50;99.90;;;;;;5030413;28;20467;-92
2023/10/21 09:22:37;;;;;;;;;;;14.00;99.90;;;;;;5033398;28;19960;-93
2023/10/21 09:25:16;;;;;;;;;;;14.30;99.90;;;;;;5019231;28;19925;-88
2023/10/21 09:27:43;;;;;;;;;;;12.40;99.90;;;;;;5033860;28;19925;-90
2023/10/21 09:30:19;;;;;;;;;;;12.60;99.90;;;;;;5007120;28;20078;-90
2023/10/21 09:32:46;;;;;;;;;;;13.80;99.90;;;;;;5037307;28;19920;-90
2023/10/21 09:35:12;;;;;;;;;;;14.40;99.90;;;;;;5034520;28;19938;-88
2023/10/21 09:37:38;;;;;;;;;;;12.60;99.90;;;;;;5016243;28;20600;-88
2023/10/21 09:40:06;;;;;;;;;;;13.20;99.90;;;;;;5029177;28;19932;-88
2023/10/21 09:42:41;;;;;;;;;;;14.30;99.90;;;;;;5018548;28;20292;-90
2023/10/21 09:45:07;;;;;;;;;;;13.30;99.90;;;;;;5049316;28;19988;-86
2023/10/21 09:47:35;;;;;;;;;;;14.50;99.90;;;;;;5034425;28;19921;-89
2023/10/21 09:50:01;;;;;;;;;;;12.90;99.90;;;;;;5037049;28;19929;-85
2023/10/21 09:52:31;;;;;;;;;;;14.40;99.90;;;;;;5031387;28;19927;-88
2023/10/21 09:55:10;;;;;;;;;;;13.10;99.90;;;;;;5048946;28;19971;-88
2023/10/21 09:57:36;;;;;;;;;;;13.90;99.90;;;;;;5033910;28;19925;-88
2023/10/21 10:00:03;;;;;;;;;;;14.30;99.90;;;;;;5018050;28;20180;-89
2023/10/21 10:02:30;;;;;;;;;;;13.80;99.90;;;;;;5049294;28;19928;-89
2023/10/21 10:04:57;;;;;;;;;;;14.20;99.90;;;;;;5049469;28;19928;-89
2023/10/21 10:07:23;;;;;;;;;;;14.10;99.90;;;;;;5031299;28;19928;-88
2023/10/21 10:09:49;;;;;;;;;;;13.60;99.90;;;;;;5021193;28;19921;-89
2023/10/21 10:12:20;;;;;;;;;;;13.60;99.90;;;;;;5035479;28;19929;-87
2023/10/21 10:14:46;;;;;;;;;;;13.50;99.90;;;;;;5034541;28;19975;-84
2023/10/21 10:17:13;;;;;;;;;;;13.60;99.90;;;;;;5035249;28;19920;-90
2023/10/21 10:19:40;;;;;;;;;;;13.50;99.90;;;;;;5017310;28;19929;-85
2023/10/21 10:22:19;;;;;;;;;;;13.40;99.90;;;;;;5009207;28;21033;-87
2023/10/21 10:24:49;;;;;;;;;;;13.70;99.90;;;;;;5024757;28;19936;-84
2023/10/21 10:27:16;;;;;;;;;;;13.40;99.90;;;;;;5044700;28;19978;-89
2023/10/21 10:29:42;;;;;;;;;;;13.50;99.90;;;;;;5033846;28;20368;-83
2023/10/21 10:32:14;;;;;;;;;;;13.70;99.90;;;;;;5013939;28;19920;-86
2023/10/21 10:34:52;;;;;;;;;;;13.40;99.90;;;;;;5048947;28;19972;-85
2023/10/21 10:37:23;;;;;;;;;;;13.40;99.90;;;;;;5045367;28;19920;-86
2023/10/21 10:39:49;;;;;;;;;;;13.70;99.90;;;;;;5054926;28;19925;-88
2023/10/21 10:42:16;;;;;;;;;;;13.60;99.90;;;;;;5072667;28;20286;-85
2023/10/21 10:44:42;;;;;;;;;;;13.30;99.90;;;;;;5052667;28;19920;-85
2023/10/21 10:47:08;;;;;;;;;;;13.80;99.90;;;;;;5061143;28;19920;-89
2023/10/21 10:49:52;;;;;;;;;;;13.40;99.90;;;;;;5053731;28;19931;-87
2023/10/21 10:52:35;;;;;;;;;;;13.40;99.90;;;;;;5053256;28;19930;-87
2023/10/21 10:55:08;;;;;;;;;;;13.60;99.90;;;;;;5070567;28;19928;-87
2023/10/21 10:57:34;;;;;;;;;;;13.30;99.90;;;;;;5050259;28;19924;-83
2023/10/21 11:00:00;;;;;;;;;;;13.50;99.90;;;;;;5055095;28;19920;-87
2023/10/21 11:02:28;;;;;;;;;;;13.60;99.90;;;;;;5055255;28;19924;-90
2023/10/21 11:04:59;;;;;;;;;;;13.50;99.90;;;;;;5065695;28;20735;-89
2023/10/21 11:07:30;;;;;;;;;;;13.60;99.90;;;;;;5052456;28;19924;-88
2023/10/21 11:10:00;;;;;;;;;;;13.40;99.90;;;;;;5074803;28;20356;-91
2023/10/21 11:12:27;;;;;;;;;;;13.60;99.90;;;;;;5079377;28;20298;-91
2023/10/21 11:15:05;;;;;;;;;;;13.80;99.90;;;;;;5049766;28;20006;-91
2023/10/21 11:17:32;;;;;;;;;;;13.70;99.90;;;;;;5068979;28;19920;-89
2023/10/21 11:20:01;;;;;;;;;;;13.70;99.90;;;;;;5059076;28;19920;-89
2023/10/21 11:22:28;;;;;;;;;;;13.60;99.90;;;;;;5057709;28;20076;-89
2023/10/21 11:24:53;;;;;;;;;;;13.60;99.90;;;;;;5040516;28;20356;-92
2023/10/21 11:27:19;;;;;;;;;;;12.80;99.90;;;;;;5058179;28;19973;-91
2023/10/21 11:29:45;;;;;;;;;;;13.60;99.90;;;;;;5054470;28;19926;-88
2023/10/21 11:32:12;;;;;;;;;;;13.70;99.90;;;;;;5062859;28;19920;-87
2023/10/21 11:34:38;;;;;;;;;;;13.70;99.90;;;;;;5071877;28;20037;-89
2023/10/21 11:37:06;;;;;;;;;;;13.50;99.90;;;;;;5078133;28;19924;-91
2023/10/21 11:39:32;;;;;;;;;;;13.50;99.90;;;;;;5054670;28;19924;-89
2023/10/21 11:41:59;;;;;;;;;;;13.60;99.90;;;;;;5047359;28;19924;-90
2023/10/21 11:44:26;;;;;;;;;;;13.50;99.90;;;;;;5014895;28;20051;-94
2023/10/21 11:47:03;;;;;;;;;;;13.60;99.90;;;;;;5014397;28;19955;-93
2023/10/21 11:49:33;;;;;;;;;;;13.60;99.90;;;;;;5063425;28;20259;-89
2023/10/21 11:51:59;;;;;;;;;;;13.60;99.90;;;;;;5060041;28;19960;-87
2023/10/21 11:54:39;;;;;;;;;;;13.50;99.90;;;;;;5042726;28;20131;-91
2023/10/21 12:03:31;;;;;;;;;;;13.60;99.90;;;;;;5040748;28;19990;-91
2023/10/21 12:05:53;;;;;;;;;;;13.50;99.90;;;;;;5046387;28;19929;-86
2023/10/21 12:11:13;;;;;;;;;;;13.40;99.90;;;;;;5041938;28;21697;-91
2023/10/21 12:40:32;;;;;;;;;;;13.30;99.90;;;;;;5052320;28;19931;-88
2023/10/21 12:46:14;;;;;;;;;;;13.30;99.90;;;;;;5076054;28;19926;-91
2023/10/21 12:48:33;;;;;;;;;;;13.40;99.90;;;;;;5072752;28;20479;-84
2023/10/21 12:50:58;;;;;;;;;;;13.60;99.90;;;;;;5058782;28;19927;-86
2023/10/21 12:53:25;;;;;;;;;;;13.60;99.90;;;;;;5085747;28;20607;-85
2023/10/21 12:55:51;;;;;;;;;;;13.60;99.90;;;;;;5052646;28;19947;-88
2023/10/21 12:58:16;;;;;;;;;;;13.60;99.90;;;;;;5086337;28;19920;-92
2023/10/21 13:00:45;;;;;;;;;;;13.60;99.90;;;;;;5039365;28;19928;-88
2023/10/21 13:03:12;;;;;;;;;;;13.60;99.90;;;;;;5060942;28;19920;-84
2023/10/21 13:05:38;;;;;;;;;;;13.60;99.90;;;;;;5074445;28;20371;-86
2023/10/21 13:08:07;;;;;;;;;;;13.60;99.90;;;;;;5051333;28;20526;-88
2023/10/21 13:10:33;;;;;;;;;;;13.60;99.90;;;;;;5062076;28;19924;-88
2023/10/21 13:13:02;;;;;;;;;;;13.50;99.90;;;;;;5057994;28;19927;-86
2023/10/21 13:15:29;;;;;;;;;;;13.60;99.90;;;;;;5060610;28;19927;-86
2023/10/21 13:17:55;;;;;;;;;;;13.70;99.90;;;;;;5060355;28;20011;-85
2023/10/21 13:20:21;;;;;;;;;;;13.70;99.90;;;;;;5061847;28;20018;-85
2023/10/21 13:22:47;;;;;;;;;;;13.70;99.90;;;;;;5079720;28;19920;-84
2023/10/21 13:25:17;;;;;;;;;;;13.70;99.90;;;;;;5076862;28;19920;-83
2023/10/21 13:27:43;;;;;;;;;;;13.70;99.90;;;;;;5091078;28;19919;-89
2023/10/21 13:30:44;;;;;;;;;;;13.60;99.90;;;;;;5076875;28;19920;-87
2023/10/21 13:33:05;;;;;;;;;;;13.60;99.90;;;;;;5059131;28;19969;-83
2023/10/21 13:35:34;;;;;;;;;;;13.50;99.90;;;;;;5044358;28;20007;-83
2023/10/21 13:38:00;;;;;;;;;;;13.50;99.90;;;;;;5057713;28;19969;-85
2023/10/21 13:40:27;;;;;;;;;;;13.50;99.90;;;;;;5074860;28;19928;-84
2023/10/21 13:42:53;;;;;;;;;;;13.30;99.90;;;;;;5018347;28;19932;-87
2023/10/21 13:45:26;;;;;;;;;;;13.50;99.90;;;;;;5043092;28;19926;-85
2023/10/21 13:47:56;;;;;;;;;;;13.60;99.90;;;;;;5032643;28;20445;-82
2023/10/21 13:50:25;;;;;;;;;;;13.60;99.90;;;;;;5039481;28;19964;-82
2023/10/21 13:52:57;;;;;;;;;;;13.60;99.90;;;;;;5039042;28;20005;-85
2023/10/21 13:55:23;;;;;;;;;;;13.60;99.90;;;;;;5026200;28;19925;-89
2023/10/21 13:57:48;;;;;;;;;;;13.60;99.90;;;;;;5044034;28;20034;-89
2023/10/21 14:00:34;;;;;;;;;;;13.60;99.90;;;;;;5035792;28;20019;-84
2023/10/21 14:03:24;;;;;;;;;;;13.70;99.90;;;;;;5039208;28;19927;-87
2023/10/21 14:05:49;;;;;;;;;;;13.70;99.90;;;;;;5053131;28;19920;-89
2023/10/21 14:08:15;;;;;;;;;;;13.70;99.90;;;;;;5046345;28;19975;-88
2023/10/21 14:10:45;;;;;;;;;;;13.70;99.90;;;;;;5028358;28;19925;-86
2023/10/21 14:13:22;;;;;;;;;;;13.80;99.90;;;;;;5050197;28;19927;-86
2023/10/21 14:15:48;;;;;;;;;;;13.80;99.90;;;;;;5043489;28;20279;-87
2023/10/21 14:18:14;;;;;;;;;;;13.70;99.90;;;;;;5029541;28;19925;-86
2023/10/21 14:20:40;;;;;;;;;;;13.80;99.90;;;;;;5040344;28;19924;-83
2023/10/21 14:23:10;;;;;;;;;;;13.70;99.90;;;;;;5063506;28;19927;-90
2023/10/21 14:25:39;;;;;;;;;;;13.70;99.90;;;;;;5062306;28;19928;-86
2023/10/21 14:28:10;;;;;;;;;;;13.70;99.90;;;;;;5061767;28;19923;-83
2023/10/21 14:30:43;;;;;;;;;;;13.70;99.90;;;;;;5042096;28;19921;-85
2023/10/21 14:33:12;;;;;;;;;;;13.60;99.90;;;;;;5057769;28;20037;-87
2023/10/21 14:35:39;;;;;;;;;;;13.60;99.90;;;;;;5034250;28;19994;-86
2023/10/21 14:38:04;;;;;;;;;;;13.30;99.90;;;;;;5033979;28;20298;-82
2023/10/21 14:40:30;;;;;;;;;;;13.50;99.90;;;;;;5037803;28;19924;-86
2023/10/21 14:42:56;;;;;;;;;;;13.50;99.90;;;;;;5041432;28;19924;-84
2023/10/21 14:45:22;;;;;;;;;;;13.40;99.90;;;;;;5056944;28;19927;-83
2023/10/21 14:47:47;;;;;;;;;;;13.40;99.90;;;;;;5035728;28;20371;-88
2023/10/21 14:50:13;;;;;;;;;;;13.40;99.90;;;;;;5043858;28;19924;-84
2023/10/21 14:52:38;;;;;;;;;;;13.30;99.90;;;;;;5050652;28;20382;-86
2023/10/21 14:55:06;;;;;;;;;;;13.30;99.90;;;;;;5058658;28;20953;-84
2023/10/21 14:57:32;;;;;;;;;;;13.20;99.90;;;;;;5049004;28;19928;-88
2023/10/21 14:59:58;;;;;;;;;;;13.20;99.90;;;;;;5040092;28;19939;-85